Bei Facebook empfehlenBei Twitter postenGoogle plusPinterest

Das Wetter im Erzgebirge am 22.04.2015

Wetter und Klima am 22.04.2015 Holzhau im Erzgebirge (630m ü.NN)
Letzte gemessene Temperatur und Uhrzeit der Messung23:45:00 Uhr-0.20 °C
Temperatur (Maximum / Höchstwert) und Uhrzeit der Messung15:15:00 Uhr11.30 °C
Temperatur (Minimum / Tiefstwert) und Uhrzeit der Messung04:15:00-0.30 °C
Errechneter Absolutwert der Temperaturschwankungen zwischen Tmin und Tmax des Tages11.60 K
Errechnete Tagesmitteltemperatur4.31042 °C
Gesamt - Niederschlag des Tages (in flüssiger Form)0.00 Liter / m²
Luftdruck (Maximum / Höchstwert) und Zeitpunkt der Messung01:00:00 Uhr1023.00 hPa
Luftdruck (Minimum / Tiefstwert) und Zeitpunkt der Messung23:45:00 Uhr1018.90 hPa
Errechneter Absolutwert der Luftdruckschwankungen des Tages4.10 hPa
Höchste gemessene Windgeschwindigkeit und Uhrzeit der Messung08:00:00 Uhr11.16 km/h
Errechnete Windhäufigkeit in Relation zu den Messwerten des Tages11.45833 %
Niedrigste Windkühle (Windchill) und Zeitpunkt der Messung08:00:00 Uhr-1.10 °C
Taupunkt (Maximum / Höchstwert) und Uhrzeit der Messung18:15:00 Uhr2.60 °C
Taupunkt (Minimum / Tiefstwert) und Uhrzeit der Messung03:45:00-3.80 °C
Anzahl der automatisch eingelesenen Messwerte 96

Detaillierte Wetter- und Klima- Messwerte für den 22.04.2015 in Holzhau im Erzgebirge (630m ü.NN)
ZeitTemperaturLuftdruckRel. LuftfeuchteWindWindrichtungWindchillTaupunktNiederschlag l/m²
23:45:00-0.20 °C1018.90 hPa86.00 %-2.50 °C 
23:30:000.00 °C1019.00 hPa86.00 %-2.30 °C 
23:15:000.30 °C1019.40 hPa86.00 %-1.80 °C 
23:00:000.40 °C1019.60 hPa86.00 %-1.70 °C 
22:45:000.40 °C1019.60 hPa85.00 %-1.80 °C 
22:30:000.40 °C1019.70 hPa84.00 %-2.00 °C 
22:15:000.50 °C1019.60 hPa83.00 %-2.00 °C 
22:00:000.90 °C1020.00 hPa82.00 %-1.80 °C 
21:45:001.40 °C1020.00 hPa81.00 %-1.50 °C 
21:30:002.10 °C1020.10 hPa81.00 %-0.80 °C 
21:15:002.50 °C1020.20 hPa79.00 %-0.80 °C 
21:00:003.10 °C1020.30 hPa78.00 %-0.40 °C 
20:45:003.80 °C1020.20 hPa77.00 %0.10 °C 
20:30:004.30 °C1020.20 hPa76.00 %0.50 °C 
20:15:005.10 °C1020.00 hPa74.00 %0.90 °C 
20:00:005.60 °C1020.10 hPa73.00 %1.20 °C 
19:45:006.20 °C1019.70 hPa72.00 %1.50 °C 
19:30:006.90 °C1019.80 hPa70.00 %1.80 °C 
19:15:007.30 °C1019.60 hPa70.00 %2.20 °C 
19:00:007.30 °C1019.60 hPa69.00 %2.00 °C 
18:45:007.60 °C1019.60 hPa68.00 %2.10 °C 
18:30:007.80 °C1019.10 hPa67.00 %2.10 °C 
18:15:008.10 °C1020.00 hPa68.00 %2.60 °C 
18:00:007.90 °C1020.40 hPa67.00 %9.72 km/hWNW6.20 °C2.20 °C 
17:45:007.50 °C1020.10 hPa66.00 %4.32 km/hWNW7.50 °C1.60 °C 
17:30:008.20 °C1020.30 hPa59.00 %0.70 °C 
17:15:008.70 °C1020.40 hPa58.00 %0.90 °C 
17:00:009.30 °C1020.50 hPa57.00 %1.20 °C 
16:45:009.60 °C1020.40 hPa55.00 %1.00 °C 
16:30:0010.40 °C1020.50 hPa54.00 %1.50 °C 
16:15:0010.90 °C1020.30 hPa54.00 %2.00 °C 
16:00:0010.20 °C1020.30 hPa56.00 %1.80 °C 
15:45:008.80 °C1020.00 hPa57.00 %0.80 °C 
15:30:009.90 °C1020.20 hPa54.00 %1.00 °C 
15:15:0011.30 °C1020.00 hPa55.00 %2.60 °C 
15:00:0010.30 °C1020.30 hPa56.00 %1.90 °C 
14:45:009.20 °C1020.40 hPa59.00 %1.60 °C 
14:30:008.90 °C1020.60 hPa61.00 %1.80 °C 
14:15:008.40 °C1020.80 hPa63.00 %1.80 °C 
14:00:008.40 °C1020.90 hPa64.00 %2.00 °C 
13:45:008.80 °C1020.80 hPa65.00 %8.28 km/hNW7.50 °C2.60 °C 
13:30:007.40 °C1021.00 hPa71.00 %2.50 °C 
13:15:006.10 °C1021.20 hPa71.00 %1.20 °C 
13:00:006.30 °C1021.30 hPa70.00 %1.20 °C 
12:45:006.50 °C1021.60 hPa70.00 %1.40 °C 
12:30:007.20 °C1021.50 hPa69.00 %1.90 °C 
12:15:006.60 °C1021.50 hPa72.00 %1.90 °C 
12:00:005.80 °C1021.60 hPa74.00 %1.50 °C 
11:45:005.40 °C1021.70 hPa75.00 %1.30 °C 
11:30:005.00 °C1021.90 hPa77.00 %1.30 °C 
11:15:004.10 °C1022.00 hPa79.00 %0.80 °C 
11:00:004.10 °C1022.00 hPa79.00 %0.80 °C 
10:45:003.90 °C1021.70 hPa80.00 %5.40 km/hW2.70 °C0.80 °C 
10:30:003.80 °C1021.90 hPa81.00 %0.80 °C 
10:15:003.50 °C1021.90 hPa83.00 %0.90 °C 
10:00:003.10 °C1022.00 hPa84.00 %0.70 °C 
09:45:002.70 °C1021.70 hPa86.00 %7.20 km/hNNW0.70 °C0.60 °C 
09:30:002.20 °C1021.80 hPa88.00 %0.40 °C 
09:15:001.90 °C1021.70 hPa88.00 %0.10 °C 
09:00:001.90 °C1021.80 hPa87.00 %7.20 km/hWNW-0.30 °C0.00 °C 
08:45:002.00 °C1021.80 hPa86.00 %-0.10 °C 
08:30:002.10 °C1021.90 hPa85.00 %3.60 km/hWNW2.10 °C-0.20 °C 
08:15:002.10 °C1021.90 hPa85.00 %6.84 km/hW0.10 °C-0.20 °C 
08:00:002.10 °C1021.90 hPa86.00 %11.16 km/hWNW-1.10 °C0.00 °C 
07:45:002.10 °C1021.60 hPa86.00 %0.00 °C 
07:30:002.10 °C1021.70 hPa87.00 %0.20 °C 
07:15:002.00 °C1021.50 hPa88.00 %0.20 °C 
07:00:001.90 °C1021.40 hPa88.00 %6.48 km/hWNW0.00 °C0.10 °C 
06:45:001.90 °C1021.60 hPa87.00 %0.00 °C 
06:30:002.10 °C1021.60 hPa87.00 %0.20 °C 
06:15:002.10 °C1021.50 hPa86.00 %0.00 °C 
06:00:001.90 °C1021.20 hPa86.00 %-0.20 °C 
05:45:001.60 °C1021.30 hPa85.00 %5.76 km/hN-0.10 °C-0.60 °C 
05:30:000.90 °C1021.20 hPa84.00 %-1.50 °C 
05:15:000.30 °C1021.40 hPa82.00 %-2.40 °C 
05:00:000.40 °C1021.10 hPa82.00 %-2.30 °C 
04:45:000.40 °C1021.40 hPa82.00 %-2.30 °C 
04:30:000.10 °C1021.50 hPa82.00 %-2.60 °C 
04:15:00-0.30 °C1021.50 hPa81.00 %-3.50 °C 
04:00:00-0.30 °C1021.70 hPa80.00 %-3.70 °C 
03:45:00-0.20 °C1022.00 hPa79.00 %-3.80 °C 
03:30:000.10 °C1022.00 hPa78.00 %-3.30 °C 
03:15:000.50 °C1021.90 hPa78.00 %-2.90 °C 
03:00:000.90 °C1022.20 hPa77.00 %-2.70 °C 
02:45:001.40 °C1022.40 hPa76.00 %-2.40 °C 
02:30:001.80 °C1022.50 hPa75.00 %-2.10 °C 
02:15:002.30 °C1022.90 hPa73.00 %-2.00 °C 
02:00:003.00 °C1022.80 hPa71.00 %-1.70 °C 
01:45:003.80 °C1022.90 hPa70.00 %-1.20 °C 
01:30:004.30 °C1022.90 hPa69.00 %-0.90 °C 
01:15:004.70 °C1022.90 hPa69.00 %-0.50 °C 
01:00:005.00 °C1023.00 hPa69.00 %-0.20 °C 
00:45:005.30 °C1022.90 hPa69.00 %0.10 °C 
00:30:005.50 °C1023.00 hPa68.00 %0.10 °C 
00:15:005.80 °C1022.80 hPa68.00 %0.40 °C 
00:00:006.10 °C1022.80 hPa67.00 %0.40 °C 

Permanenter Link zu dieser Seite: Wetter im Erzgebirge am 22.04.2015
Performance-Info: Die Erstellung der Seite / Statistik(en) / Tabelle(n) erforderte 5 Datenbankserver-Abfrage(n) und dauerte 124 Millisekunden. (Dieser Messwert ist von der Gesamt-Auslastung des Servers abhängig.)
Erzgebirge - Wetter | Erzgebirge - Wetter (Mobilgeräte) | Komplette Klimadatenbank